sensor_id;sensor_type;location;lat;lon;timestamp;P1;durP1;ratioP1;P2;durP2;ratioP2
51883;SDS011;37915;53.254;6.598;2023-04-03T00:00:59;3.63;;;1.60;;
51883;SDS011;37915;53.254;6.598;2023-04-03T00:03:25;3.92;;;1.70;;
51883;SDS011;37915;53.254;6.598;2023-04-03T00:05:50;3.60;;;1.70;;
51883;SDS011;37915;53.254;6.598;2023-04-03T00:08:16;2.70;;;1.58;;
51883;SDS011;37915;53.254;6.598;2023-04-03T00:10:42;3.90;;;1.60;;
51883;SDS011;37915;53.254;6.598;2023-04-03T00:13:08;4.30;;;1.60;;
51883;SDS011;37915;53.254;6.598;2023-04-03T00:15:34;4.60;;;1.58;;
51883;SDS011;37915;53.254;6.598;2023-04-03T00:18:00;2.33;;;1.20;;
51883;SDS011;37915;53.254;6.598;2023-04-03T00:20:27;3.70;;;1.52;;
51883;SDS011;37915;53.254;6.598;2023-04-03T00:22:53;4.25;;;1.60;;
51883;SDS011;37915;53.254;6.598;2023-04-03T00:25:19;7.07;;;1.80;;
51883;SDS011;37915;53.254;6.598;2023-04-03T00:27:44;3.30;;;1.40;;
51883;SDS011;37915;53.254;6.598;2023-04-03T00:30:11;2.25;;;1.30;;
51883;SDS011;37915;53.254;6.598;2023-04-03T00:32:39;2.47;;;1.45;;
51883;SDS011;37915;53.254;6.598;2023-04-03T00:35:05;3.67;;;1.90;;
51883;SDS011;37915;53.254;6.598;2023-04-03T00:37:31;3.95;;;1.80;;
51883;SDS011;37915;53.254;6.598;2023-04-03T00:39:58;3.60;;;1.67;;
51883;SDS011;37915;53.254;6.598;2023-04-03T00:42:24;5.13;;;1.63;;
51883;SDS011;37915;53.254;6.598;2023-04-03T00:47:22;5.28;;;1.30;;
51883;SDS011;37915;53.254;6.598;2023-04-03T00:49:49;2.75;;;1.20;;
51883;SDS011;37915;53.254;6.598;2023-04-03T00:52:16;4.80;;;1.55;;
51883;SDS011;37915;53.254;6.598;2023-04-03T00:54:45;5.43;;;1.50;;
51883;SDS011;37915;53.254;6.598;2023-04-03T00:57:12;6.20;;;1.58;;
51883;SDS011;37915;53.254;6.598;2023-04-03T00:59:40;4.80;;;1.55;;
51883;SDS011;37915;53.254;6.598;2023-04-03T01:02:11;3.95;;;1.52;;
51883;SDS011;37915;53.254;6.598;2023-04-03T01:04:38;4.93;;;1.70;;
51883;SDS011;37915;53.254;6.598;2023-04-03T01:09:36;5.25;;;1.35;;
51883;SDS011;37915;53.254;6.598;2023-04-03T01:12:13;3.45;;;1.52;;
51883;SDS011;37915;53.254;6.598;2023-04-03T01:15:30;4.57;;;1.63;;
51883;SDS011;37915;53.254;6.598;2023-04-03T01:25:12;6.13;;;1.55;;
51883;SDS011;37915;53.254;6.598;2023-04-03T01:27:38;3.83;;;1.60;;
51883;SDS011;37915;53.254;6.598;2023-04-03T01:30:04;3.53;;;1.52;;
51883;SDS011;37915;53.254;6.598;2023-04-03T01:32:30;5.65;;;1.90;;
51883;SDS011;37915;53.254;6.598;2023-04-03T01:34:56;4.10;;;1.52;;
51883;SDS011;37915;53.254;6.598;2023-04-03T01:37:22;5.35;;;1.77;;
51883;SDS011;37915;53.254;6.598;2023-04-03T01:39:47;3.78;;;1.52;;
51883;SDS011;37915;53.254;6.598;2023-04-03T01:42:13;5.47;;;1.80;;
51883;SDS011;37915;53.254;6.598;2023-04-03T01:44:39;5.47;;;2.03;;
51883;SDS011;37915;53.254;6.598;2023-04-03T01:47:07;5.78;;;2.05;;
51883;SDS011;37915;53.254;6.598;2023-04-03T01:49:33;5.82;;;1.77;;
51883;SDS011;37915;53.254;6.598;2023-04-03T01:51:59;5.72;;;2.03;;
51883;SDS011;37915;53.254;6.598;2023-04-03T01:54:25;4.70;;;1.67;;
51883;SDS011;37915;53.254;6.598;2023-04-03T01:56:50;4.70;;;1.77;;
51883;SDS011;37915;53.254;6.598;2023-04-03T01:59:16;5.05;;;1.90;;
51883;SDS011;37915;53.254;6.598;2023-04-03T02:01:43;3.88;;;1.58;;
51883;SDS011;37915;53.254;6.598;2023-04-03T02:04:10;3.75;;;1.70;;
51883;SDS011;37915;53.254;6.598;2023-04-03T02:06:36;4.85;;;1.85;;
51883;SDS011;37915;53.254;6.598;2023-04-03T02:09:03;6.30;;;2.05;;
51883;SDS011;37915;53.254;6.598;2023-04-03T02:11:29;7.38;;;1.88;;
51883;SDS011;37915;53.254;6.598;2023-04-03T02:13:55;4.63;;;1.75;;
51883;SDS011;37915;53.254;6.598;2023-04-03T02:16:21;5.15;;;1.48;;
51883;SDS011;37915;53.254;6.598;2023-04-03T02:18:46;7.25;;;2.13;;
51883;SDS011;37915;53.254;6.598;2023-04-03T02:21:12;6.40;;;2.17;;
51883;SDS011;37915;53.254;6.598;2023-04-03T02:23:38;6.93;;;2.00;;
51883;SDS011;37915;53.254;6.598;2023-04-03T02:26:08;5.32;;;2.20;;
51883;SDS011;37915;53.254;6.598;2023-04-03T02:28:35;7.18;;;1.95;;
51883;SDS011;37915;53.254;6.598;2023-04-03T02:31:01;5.10;;;1.70;;
51883;SDS011;37915;53.254;6.598;2023-04-03T02:33:28;6.90;;;2.22;;
51883;SDS011;37915;53.254;6.598;2023-04-03T02:35:54;6.45;;;2.10;;
51883;SDS011;37915;53.254;6.598;2023-04-03T02:38:21;6.05;;;1.83;;
51883;SDS011;37915;53.254;6.598;2023-04-03T02:40:47;5.07;;;2.03;;
51883;SDS011;37915;53.254;6.598;2023-04-03T02:43:13;7.10;;;1.90;;
51883;SDS011;37915;53.254;6.598;2023-04-03T02:45:39;7.00;;;2.10;;
51883;SDS011;37915;53.254;6.598;2023-04-03T02:48:05;7.22;;;1.88;;
51883;SDS011;37915;53.254;6.598;2023-04-03T02:50:31;5.13;;;1.70;;
51883;SDS011;37915;53.254;6.598;2023-04-03T02:52:57;5.03;;;1.83;;
51883;SDS011;37915;53.254;6.598;2023-04-03T02:55:22;6.05;;;2.05;;
51883;SDS011;37915;53.254;6.598;2023-04-03T02:57:48;5.90;;;1.83;;
51883;SDS011;37915;53.254;6.598;2023-04-03T03:00:14;7.50;;;2.10;;
51883;SDS011;37915;53.254;6.598;2023-04-03T03:02:40;5.97;;;1.98;;
51883;SDS011;37915;53.254;6.598;2023-04-03T03:05:05;4.18;;;1.67;;
51883;SDS011;37915;53.254;6.598;2023-04-03T03:07:32;6.72;;;2.10;;
51883;SDS011;37915;53.254;6.598;2023-04-03T03:09:58;9.95;;;1.65;;
51883;SDS011;37915;53.254;6.598;2023-04-03T03:12:24;6.25;;;1.83;;
51883;SDS011;37915;53.254;6.598;2023-04-03T03:14:50;5.97;;;2.00;;
51883;SDS011;37915;53.254;6.598;2023-04-03T03:17:16;8.68;;;2.45;;
51883;SDS011;37915;53.254;6.598;2023-04-03T03:19:42;5.95;;;2.10;;
51883;SDS011;37915;53.254;6.598;2023-04-03T03:22:08;4.90;;;2.13;;
51883;SDS011;37915;53.254;6.598;2023-04-03T03:24:34;6.00;;;2.40;;
51883;SDS011;37915;53.254;6.598;2023-04-03T03:27:00;4.88;;;1.92;;
51883;SDS011;37915;53.254;6.598;2023-04-03T03:29:26;6.07;;;2.38;;
51883;SDS011;37915;53.254;6.598;2023-04-03T03:31:51;9.07;;;2.05;;
51883;SDS011;37915;53.254;6.598;2023-04-03T03:34:17;5.00;;;2.00;;
51883;SDS011;37915;53.254;6.598;2023-04-03T03:36:43;5.85;;;1.88;;
51883;SDS011;37915;53.254;6.598;2023-04-03T03:39:08;4.55;;;1.77;;
51883;SDS011;37915;53.254;6.598;2023-04-03T03:41:35;5.18;;;1.80;;
51883;SDS011;37915;53.254;6.598;2023-04-03T03:44:01;3.75;;;1.90;;
51883;SDS011;37915;53.254;6.598;2023-04-03T03:46:26;5.70;;;2.17;;
51883;SDS011;37915;53.254;6.598;2023-04-03T03:48:52;3.67;;;1.98;;
51883;SDS011;37915;53.254;6.598;2023-04-03T03:51:18;5.97;;;2.35;;
51883;SDS011;37915;53.254;6.598;2023-04-03T03:53:43;3.95;;;1.80;;
51883;SDS011;37915;53.254;6.598;2023-04-03T03:56:09;4.50;;;2.15;;
51883;SDS011;37915;53.254;6.598;2023-04-03T03:58:35;5.43;;;1.95;;
51883;SDS011;37915;53.254;6.598;2023-04-03T04:01:04;6.35;;;2.10;;
51883;SDS011;37915;53.254;6.598;2023-04-03T04:03:31;4.22;;;2.08;;
51883;SDS011;37915;53.254;6.598;2023-04-03T04:05:57;7.70;;;2.05;;
51883;SDS011;37915;53.254;6.598;2023-04-03T04:08:23;5.15;;;2.20;;
51883;SDS011;37915;53.254;6.598;2023-04-03T04:10:49;8.05;;;2.20;;
51883;SDS011;37915;53.254;6.598;2023-04-03T04:13:14;7.55;;;2.40;;
51883;SDS011;37915;53.254;6.598;2023-04-03T04:15:40;8.27;;;2.50;;
51883;SDS011;37915;53.254;6.598;2023-04-03T04:18:07;6.00;;;2.00;;
51883;SDS011;37915;53.254;6.598;2023-04-03T04:20:32;5.07;;;2.25;;
51883;SDS011;37915;53.254;6.598;2023-04-03T04:22:58;6.28;;;2.30;;
51883;SDS011;37915;53.254;6.598;2023-04-03T04:25:23;5.47;;;2.67;;
51883;SDS011;37915;53.254;6.598;2023-04-03T04:27:49;8.95;;;2.50;;
51883;SDS011;37915;53.254;6.598;2023-04-03T04:30:15;6.75;;;2.30;;
51883;SDS011;37915;53.254;6.598;2023-04-03T04:32:41;6.88;;;2.47;;
51883;SDS011;37915;53.254;6.598;2023-04-03T04:35:07;7.78;;;2.70;;
51883;SDS011;37915;53.254;6.598;2023-04-03T04:37:33;7.50;;;3.20;;
51883;SDS011;37915;53.254;6.598;2023-04-03T04:39:58;7.20;;;2.50;;
51883;SDS011;37915;53.254;6.598;2023-04-03T04:42:24;9.60;;;2.45;;
51883;SDS011;37915;53.254;6.598;2023-04-03T04:44:50;5.68;;;2.63;;
51883;SDS011;37915;53.254;6.598;2023-04-03T04:47:16;6.95;;;2.55;;
51883;SDS011;37915;53.254;6.598;2023-04-03T04:49:41;6.63;;;2.58;;
51883;SDS011;37915;53.254;6.598;2023-04-03T04:52:07;8.80;;;2.95;;
51883;SDS011;37915;53.254;6.598;2023-04-03T04:54:33;8.18;;;3.13;;
51883;SDS011;37915;53.254;6.598;2023-04-03T04:56:58;7.63;;;2.60;;
51883;SDS011;37915;53.254;6.598;2023-04-03T04:59:24;7.25;;;2.30;;
51883;SDS011;37915;53.254;6.598;2023-04-03T05:01:50;7.75;;;2.55;;
51883;SDS011;37915;53.254;6.598;2023-04-03T05:04:15;8.55;;;2.70;;
51883;SDS011;37915;53.254;6.598;2023-04-03T05:06:42;10.45;;;3.10;;
51883;SDS011;37915;53.254;6.598;2023-04-03T05:09:07;5.18;;;2.25;;
51883;SDS011;37915;53.254;6.598;2023-04-03T05:11:34;9.95;;;2.55;;
51883;SDS011;37915;53.254;6.598;2023-04-03T05:14:01;10.70;;;2.85;;
51883;SDS011;37915;53.254;6.598;2023-04-03T05:16:26;5.88;;;2.40;;
51883;SDS011;37915;53.254;6.598;2023-04-03T05:18:52;6.90;;;2.90;;
51883;SDS011;37915;53.254;6.598;2023-04-03T05:21:18;5.25;;;2.50;;
51883;SDS011;37915;53.254;6.598;2023-04-03T05:23:44;8.10;;;2.70;;
51883;SDS011;37915;53.254;6.598;2023-04-03T05:26:10;8.68;;;2.90;;
51883;SDS011;37915;53.254;6.598;2023-04-03T05:28:35;5.32;;;2.40;;
51883;SDS011;37915;53.254;6.598;2023-04-03T05:31:01;9.35;;;2.92;;
51883;SDS011;37915;53.254;6.598;2023-04-03T05:33:27;10.70;;;2.88;;
51883;SDS011;37915;53.254;6.598;2023-04-03T05:35:54;8.38;;;2.70;;
51883;SDS011;37915;53.254;6.598;2023-04-03T05:38:19;6.07;;;2.53;;
51883;SDS011;37915;53.254;6.598;2023-04-03T05:40:45;7.38;;;2.72;;
51883;SDS011;37915;53.254;6.598;2023-04-03T05:43:11;6.47;;;2.83;;
51883;SDS011;37915;53.254;6.598;2023-04-03T05:45:37;7.78;;;2.45;;
51883;SDS011;37915;53.254;6.598;2023-04-03T05:48:02;5.53;;;2.25;;
51883;SDS011;37915;53.254;6.598;2023-04-03T05:50:28;10.50;;;3.58;;
51883;SDS011;37915;53.254;6.598;2023-04-03T05:52:55;7.22;;;2.65;;
51883;SDS011;37915;53.254;6.598;2023-04-03T05:55:23;6.90;;;2.83;;
51883;SDS011;37915;53.254;6.598;2023-04-03T05:57:49;9.88;;;2.88;;
51883;SDS011;37915;53.254;6.598;2023-04-03T06:00:15;12.45;;;2.75;;
51883;SDS011;37915;53.254;6.598;2023-04-03T06:02:41;6.72;;;3.10;;
51883;SDS011;37915;53.254;6.598;2023-04-03T06:05:08;8.93;;;3.05;;
51883;SDS011;37915;53.254;6.598;2023-04-03T06:07:36;8.57;;;2.83;;
51883;SDS011;37915;53.254;6.598;2023-04-03T06:10:02;5.18;;;2.35;;
51883;SDS011;37915;53.254;6.598;2023-04-03T06:12:29;7.07;;;3.05;;
51883;SDS011;37915;53.254;6.598;2023-04-03T06:14:54;6.50;;;2.75;;
51883;SDS011;37915;53.254;6.598;2023-04-03T06:17:20;5.75;;;2.50;;
51883;SDS011;37915;53.254;6.598;2023-04-03T06:19:46;7.90;;;2.88;;
51883;SDS011;37915;53.254;6.598;2023-04-03T06:22:12;8.15;;;2.75;;
51883;SDS011;37915;53.254;6.598;2023-04-03T06:24:39;8.02;;;3.17;;
51883;SDS011;37915;53.254;6.598;2023-04-03T06:27:05;4.18;;;2.22;;
51883;SDS011;37915;53.254;6.598;2023-04-03T06:29:30;9.15;;;2.72;;
51883;SDS011;37915;53.254;6.598;2023-04-03T06:31:56;6.00;;;2.72;;
51883;SDS011;37915;53.254;6.598;2023-04-03T06:34:22;5.57;;;2.50;;
51883;SDS011;37915;53.254;6.598;2023-04-03T06:36:48;4.80;;;2.50;;
51883;SDS011;37915;53.254;6.598;2023-04-03T06:39:23;7.03;;;2.50;;
51883;SDS011;37915;53.254;6.598;2023-04-03T06:41:49;9.80;;;2.58;;
51883;SDS011;37915;53.254;6.598;2023-04-03T06:44:15;7.28;;;2.67;;
51883;SDS011;37915;53.254;6.598;2023-04-03T06:46:42;4.43;;;2.40;;
51883;SDS011;37915;53.254;6.598;2023-04-03T06:49:08;6.22;;;2.47;;
51883;SDS011;37915;53.254;6.598;2023-04-03T06:51:35;6.88;;;2.50;;
51883;SDS011;37915;53.254;6.598;2023-04-03T06:54:01;7.22;;;3.10;;
51883;SDS011;37915;53.254;6.598;2023-04-03T06:56:28;6.78;;;2.58;;
51883;SDS011;37915;53.254;6.598;2023-04-03T06:58:55;9.30;;;3.22;;
51883;SDS011;37915;53.254;6.598;2023-04-03T07:01:22;11.27;;;3.05;;
51883;SDS011;37915;53.254;6.598;2023-04-03T07:03:52;8.07;;;2.88;;
51883;SDS011;37915;53.254;6.598;2023-04-03T07:06:24;8.10;;;2.80;;
51883;SDS011;37915;53.254;6.598;2023-04-03T07:08:52;6.88;;;2.70;;
51883;SDS011;37915;53.254;6.598;2023-04-03T07:11:18;7.07;;;2.40;;
51883;SDS011;37915;53.254;6.598;2023-04-03T07:13:43;8.05;;;3.58;;
51883;SDS011;37915;53.254;6.598;2023-04-03T07:16:09;5.80;;;2.70;;
51883;SDS011;37915;53.254;6.598;2023-04-03T07:18:35;11.35;;;3.08;;
51883;SDS011;37915;53.254;6.598;2023-04-03T07:21:01;6.63;;;2.47;;
51883;SDS011;37915;53.254;6.598;2023-04-03T07:23:27;7.72;;;3.17;;
51883;SDS011;37915;53.254;6.598;2023-04-03T07:25:53;9.18;;;2.72;;
51883;SDS011;37915;53.254;6.598;2023-04-03T07:28:20;7.35;;;3.38;;
51883;SDS011;37915;53.254;6.598;2023-04-03T07:30:48;5.57;;;2.53;;
51883;SDS011;37915;53.254;6.598;2023-04-03T07:33:17;7.20;;;2.55;;
51883;SDS011;37915;53.254;6.598;2023-04-03T07:35:44;7.35;;;2.55;;
51883;SDS011;37915;53.254;6.598;2023-04-03T07:38:10;6.53;;;2.20;;
51883;SDS011;37915;53.254;6.598;2023-04-03T07:40:37;7.47;;;2.25;;
51883;SDS011;37915;53.254;6.598;2023-04-03T07:43:03;5.95;;;2.20;;
51883;SDS011;37915;53.254;6.598;2023-04-03T07:45:30;5.97;;;2.22;;
51883;SDS011;37915;53.254;6.598;2023-04-03T07:47:56;8.77;;;2.60;;
51883;SDS011;37915;53.254;6.598;2023-04-03T07:50:22;5.70;;;2.25;;
51883;SDS011;37915;53.254;6.598;2023-04-03T07:52:48;5.55;;;2.10;;
51883;SDS011;37915;53.254;6.598;2023-04-03T07:55:15;6.00;;;2.20;;
51883;SDS011;37915;53.254;6.598;2023-04-03T07:57:41;8.10;;;2.42;;
51883;SDS011;37915;53.254;6.598;2023-04-03T08:00:07;3.78;;;1.88;;
51883;SDS011;37915;53.254;6.598;2023-04-03T08:02:34;9.30;;;2.50;;
51883;SDS011;37915;53.254;6.598;2023-04-03T08:04:59;8.18;;;2.25;;
51883;SDS011;37915;53.254;6.598;2023-04-03T08:07:25;8.57;;;2.33;;
51883;SDS011;37915;53.254;6.598;2023-04-03T08:09:51;6.65;;;2.33;;
51883;SDS011;37915;53.254;6.598;2023-04-03T08:12:17;4.90;;;2.05;;
51883;SDS011;37915;53.254;6.598;2023-04-03T08:14:43;5.13;;;2.20;;
51883;SDS011;37915;53.254;6.598;2023-04-03T08:17:09;7.00;;;2.10;;
51883;SDS011;37915;53.254;6.598;2023-04-03T08:19:39;5.00;;;2.03;;
51883;SDS011;37915;53.254;6.598;2023-04-03T08:22:05;7.90;;;2.60;;
51883;SDS011;37915;53.254;6.598;2023-04-03T08:24:32;7.03;;;2.30;;
51883;SDS011;37915;53.254;6.598;2023-04-03T08:26:58;4.95;;;2.30;;
51883;SDS011;37915;53.254;6.598;2023-04-03T08:29:24;9.57;;;3.08;;
51883;SDS011;37915;53.254;6.598;2023-04-03T08:31:50;6.15;;;2.40;;
51883;SDS011;37915;53.254;6.598;2023-04-03T08:34:16;5.45;;;2.50;;
51883;SDS011;37915;53.254;6.598;2023-04-03T08:36:43;5.75;;;2.05;;
51883;SDS011;37915;53.254;6.598;2023-04-03T08:39:09;5.18;;;2.00;;
51883;SDS011;37915;53.254;6.598;2023-04-03T08:41:39;6.50;;;2.53;;
51883;SDS011;37915;53.254;6.598;2023-04-03T08:44:15;5.13;;;2.00;;
51883;SDS011;37915;53.254;6.598;2023-04-03T08:49:32;4.25;;;2.15;;
51883;SDS011;37915;53.254;6.598;2023-04-03T08:52:08;6.55;;;2.17;;
51883;SDS011;37915;53.254;6.598;2023-04-03T08:54:43;4.55;;;2.30;;
51883;SDS011;37915;53.254;6.598;2023-04-03T08:57:16;5.60;;;2.10;;
51883;SDS011;37915;53.254;6.598;2023-04-03T08:59:45;4.93;;;1.80;;
51883;SDS011;37915;53.254;6.598;2023-04-03T09:02:20;6.28;;;2.33;;
51883;SDS011;37915;53.254;6.598;2023-04-03T09:04:57;4.82;;;1.85;;
51883;SDS011;37915;53.254;6.598;2023-04-03T09:10:29;4.43;;;1.40;;
51883;SDS011;37915;53.254;6.598;2023-04-03T09:13:03;3.38;;;1.65;;
51883;SDS011;37915;53.254;6.598;2023-04-03T09:15:44;4.28;;;1.50;;
51883;SDS011;37915;53.254;6.598;2023-04-03T09:26:06;7.10;;;1.58;;
51883;SDS011;37915;53.254;6.598;2023-04-03T09:28:37;3.60;;;1.25;;
51883;SDS011;37915;53.254;6.598;2023-04-03T09:31:38;3.88;;;1.80;;
51883;SDS011;37915;53.254;6.598;2023-04-03T09:34:10;5.50;;;1.75;;
51883;SDS011;37915;53.254;6.598;2023-04-03T09:36:52;4.10;;;1.75;;
51883;SDS011;37915;53.254;6.598;2023-04-03T09:39:30;5.22;;;1.50;;
51883;SDS011;37915;53.254;6.598;2023-04-03T09:42:02;4.57;;;1.52;;
51883;SDS011;37915;53.254;6.598;2023-04-03T09:44:34;2.88;;;1.40;;
51883;SDS011;37915;53.254;6.598;2023-04-03T09:47:23;4.35;;;1.63;;
51883;SDS011;37915;53.254;6.598;2023-04-03T09:49:51;4.85;;;1.67;;
51883;SDS011;37915;53.254;6.598;2023-04-03T09:52:34;4.47;;;1.52;;
51883;SDS011;37915;53.254;6.598;2023-04-03T09:55:06;4.93;;;1.70;;
51883;SDS011;37915;53.254;6.598;2023-04-03T09:57:46;3.17;;;1.37;;
51883;SDS011;37915;53.254;6.598;2023-04-03T10:00:23;3.67;;;1.42;;
51883;SDS011;37915;53.254;6.598;2023-04-03T10:02:55;5.20;;;1.88;;
51883;SDS011;37915;53.254;6.598;2023-04-03T10:07:51;5.00;;;1.42;;
51883;SDS011;37915;53.254;6.598;2023-04-03T10:12:48;4.78;;;1.67;;
51883;SDS011;37915;53.254;6.598;2023-04-03T10:15:28;3.42;;;1.50;;
51883;SDS011;37915;53.254;6.598;2023-04-03T10:17:57;3.28;;;1.48;;
51883;SDS011;37915;53.254;6.598;2023-04-03T10:20:39;3.75;;;1.27;;
51883;SDS011;37915;53.254;6.598;2023-04-03T10:23:14;3.72;;;1.60;;
51883;SDS011;37915;53.254;6.598;2023-04-03T10:28:41;3.45;;;1.58;;
51883;SDS011;37915;53.254;6.598;2023-04-03T10:34:21;4.25;;;1.45;;
51883;SDS011;37915;53.254;6.598;2023-04-03T10:39:31;5.28;;;1.90;;
51883;SDS011;37915;53.254;6.598;2023-04-03T10:45:18;2.75;;;1.10;;
51883;SDS011;37915;53.254;6.598;2023-04-03T10:50:43;4.03;;;1.20;;
51883;SDS011;37915;53.254;6.598;2023-04-03T10:55:43;3.42;;;1.13;;
51883;SDS011;37915;53.254;6.598;2023-04-03T10:58:38;3.05;;;1.33;;
51883;SDS011;37915;53.254;6.598;2023-04-03T11:01:09;3.60;;;1.17;;
51883;SDS011;37915;53.254;6.598;2023-04-03T11:03:49;4.18;;;1.30;;
51883;SDS011;37915;53.254;6.598;2023-04-03T11:06:19;2.40;;;1.02;;
51883;SDS011;37915;53.254;6.598;2023-04-03T11:09:00;3.13;;;1.00;;
51883;SDS011;37915;53.254;6.598;2023-04-03T11:11:35;3.25;;;1.08;;
51883;SDS011;37915;53.254;6.598;2023-04-03T11:14:25;4.15;;;1.10;;
51883;SDS011;37915;53.254;6.598;2023-04-03T11:17:01;3.00;;;1.10;;
51883;SDS011;37915;53.254;6.598;2023-04-03T11:19:41;2.90;;;1.30;;
51883;SDS011;37915;53.254;6.598;2023-04-03T11:25:02;4.40;;;1.20;;
51883;SDS011;37915;53.254;6.598;2023-04-03T11:27:35;3.85;;;1.00;;
51883;SDS011;37915;53.254;6.598;2023-04-03T11:30:11;3.08;;;1.23;;
51883;SDS011;37915;53.254;6.598;2023-04-03T11:35:53;3.20;;;1.10;;
51883;SDS011;37915;53.254;6.598;2023-04-03T11:38:25;3.40;;;1.30;;
51883;SDS011;37915;53.254;6.598;2023-04-03T11:40:54;2.38;;;0.95;;
51883;SDS011;37915;53.254;6.598;2023-04-03T11:43:26;2.47;;;1.27;;
51883;SDS011;37915;53.254;6.598;2023-04-03T11:46:04;3.90;;;1.35;;
51883;SDS011;37915;53.254;6.598;2023-04-03T11:51:42;3.63;;;1.23;;
51883;SDS011;37915;53.254;6.598;2023-04-03T11:53:51;4.00;;;1.20;;
51883;SDS011;37915;53.254;6.598;2023-04-03T12:01:46;2.90;;;1.20;;
51883;SDS011;37915;53.254;6.598;2023-04-03T12:04:23;3.67;;;1.10;;
51883;SDS011;37915;53.254;6.598;2023-04-03T12:06:52;3.38;;;1.00;;
51883;SDS011;37915;53.254;6.598;2023-04-03T12:12:22;2.45;;;1.10;;
51883;SDS011;37915;53.254;6.598;2023-04-03T12:14:53;4.45;;;1.65;;
51883;SDS011;37915;53.254;6.598;2023-04-03T12:17:27;2.22;;;1.10;;
51883;SDS011;37915;53.254;6.598;2023-04-03T12:19:55;6.47;;;1.10;;
51883;SDS011;37915;53.254;6.598;2023-04-03T12:22:20;4.28;;;1.42;;
51883;SDS011;37915;53.254;6.598;2023-04-03T12:24:48;3.50;;;1.27;;
51883;SDS011;37915;53.254;6.598;2023-04-03T12:30:14;2.13;;;1.08;;
51883;SDS011;37915;53.254;6.598;2023-04-03T12:38:33;5.05;;;1.20;;
51883;SDS011;37915;53.254;6.598;2023-04-03T12:47:04;3.05;;;1.25;;
51883;SDS011;37915;53.254;6.598;2023-04-03T12:49:43;3.92;;;1.13;;
51883;SDS011;37915;53.254;6.598;2023-04-03T12:52:30;3.08;;;1.13;;
51883;SDS011;37915;53.254;6.598;2023-04-03T12:55:00;3.67;;;1.30;;
51883;SDS011;37915;53.254;6.598;2023-04-03T12:57:29;2.30;;;0.90;;
51883;SDS011;37915;53.254;6.598;2023-04-03T12:59:55;4.22;;;1.20;;
51883;SDS011;37915;53.254;6.598;2023-04-03T13:04:50;3.58;;;1.15;;
51883;SDS011;37915;53.254;6.598;2023-04-03T13:07:24;3.42;;;1.05;;
51883;SDS011;37915;53.254;6.598;2023-04-03T13:10:01;2.75;;;1.20;;
51883;SDS011;37915;53.254;6.598;2023-04-03T13:12:29;2.50;;;1.17;;
51883;SDS011;37915;53.254;6.598;2023-04-03T13:14:56;4.53;;;1.10;;
51883;SDS011;37915;53.254;6.598;2023-04-03T13:17:24;2.88;;;1.13;;
51883;SDS011;37915;53.254;6.598;2023-04-03T13:19:52;3.80;;;1.10;;
51883;SDS011;37915;53.254;6.598;2023-04-03T13:22:33;3.80;;;0.98;;
51883;SDS011;37915;53.254;6.598;2023-04-03T13:25:05;2.30;;;1.00;;
51883;SDS011;37915;53.254;6.598;2023-04-03T13:27:33;2.90;;;1.20;;
51883;SDS011;37915;53.254;6.598;2023-04-03T13:30:00;3.35;;;1.20;;
51883;SDS011;37915;53.254;6.598;2023-04-03T13:32:28;3.22;;;1.27;;
51883;SDS011;37915;53.254;6.598;2023-04-03T13:34:56;3.15;;;1.10;;
51883;SDS011;37915;53.254;6.598;2023-04-03T13:37:27;3.78;;;1.40;;
51883;SDS011;37915;53.254;6.598;2023-04-03T13:42:31;2.57;;;1.10;;
51883;SDS011;37915;53.254;6.598;2023-04-03T13:47:46;4.25;;;1.40;;
51883;SDS011;37915;53.254;6.598;2023-04-03T13:50:15;3.40;;;1.30;;
51883;SDS011;37915;53.254;6.598;2023-04-03T13:52:52;3.65;;;1.40;;
51883;SDS011;37915;53.254;6.598;2023-04-03T13:55:24;3.03;;;1.35;;
51883;SDS011;37915;53.254;6.598;2023-04-03T13:57:57;2.97;;;1.20;;
51883;SDS011;37915;53.254;6.598;2023-04-03T14:05:53;3.80;;;1.20;;
51883;SDS011;37915;53.254;6.598;2023-04-03T14:08:19;3.33;;;1.08;;
51883;SDS011;37915;53.254;6.598;2023-04-03T14:10:46;4.63;;;1.40;;
51883;SDS011;37915;53.254;6.598;2023-04-03T14:13:15;4.53;;;1.40;;
51883;SDS011;37915;53.254;6.598;2023-04-03T14:15:43;4.07;;;1.15;;
51883;SDS011;37915;53.254;6.598;2023-04-03T14:18:11;3.50;;;1.50;;
51883;SDS011;37915;53.254;6.598;2023-04-03T14:20:38;3.90;;;1.10;;
51883;SDS011;37915;53.254;6.598;2023-04-03T14:23:04;3.15;;;1.10;;
51883;SDS011;37915;53.254;6.598;2023-04-03T14:25:30;3.00;;;1.00;;
51883;SDS011;37915;53.254;6.598;2023-04-03T14:27:55;3.83;;;1.10;;
51883;SDS011;37915;53.254;6.598;2023-04-03T14:30:26;3.10;;;0.90;;
51883;SDS011;37915;53.254;6.598;2023-04-03T14:32:56;4.20;;;1.00;;
51883;SDS011;37915;53.254;6.598;2023-04-03T14:35:22;3.63;;;1.17;;
51883;SDS011;37915;53.254;6.598;2023-04-03T14:37:49;3.35;;;1.02;;
51883;SDS011;37915;53.254;6.598;2023-04-03T14:40:17;4.22;;;1.20;;
51883;SDS011;37915;53.254;6.598;2023-04-03T14:42:45;3.80;;;1.10;;
51883;SDS011;37915;53.254;6.598;2023-04-03T14:45:13;6.20;;;1.20;;
51883;SDS011;37915;53.254;6.598;2023-04-03T14:47:42;3.42;;;1.17;;
51883;SDS011;37915;53.254;6.598;2023-04-03T14:50:20;3.67;;;1.10;;
51883;SDS011;37915;53.254;6.598;2023-04-03T14:52:50;4.63;;;1.27;;
51883;SDS011;37915;53.254;6.598;2023-04-03T14:55:19;4.05;;;1.35;;
51883;SDS011;37915;53.254;6.598;2023-04-03T14:57:46;3.40;;;1.23;;
51883;SDS011;37915;53.254;6.598;2023-04-03T15:00:13;2.85;;;1.20;;
51883;SDS011;37915;53.254;6.598;2023-04-03T15:02:40;3.15;;;1.17;;
51883;SDS011;37915;53.254;6.598;2023-04-03T15:05:08;5.78;;;1.55;;
51883;SDS011;37915;53.254;6.598;2023-04-03T15:07:36;2.53;;;1.10;;
51883;SDS011;37915;53.254;6.598;2023-04-03T15:12:42;2.40;;;0.80;;
51883;SDS011;37915;53.254;6.598;2023-04-03T15:15:08;2.70;;;0.88;;
51883;SDS011;37915;53.254;6.598;2023-04-03T15:17:35;3.58;;;1.00;;
51883;SDS011;37915;53.254;6.598;2023-04-03T15:20:02;2.65;;;0.98;;
51883;SDS011;37915;53.254;6.598;2023-04-03T15:22:27;2.78;;;1.20;;
51883;SDS011;37915;53.254;6.598;2023-04-03T15:24:53;2.60;;;1.00;;
51883;SDS011;37915;53.254;6.598;2023-04-03T15:27:19;2.83;;;1.00;;
51883;SDS011;37915;53.254;6.598;2023-04-03T15:29:45;4.03;;;1.10;;
51883;SDS011;37915;53.254;6.598;2023-04-03T15:32:12;4.63;;;1.27;;
51883;SDS011;37915;53.254;6.598;2023-04-03T15:34:38;3.30;;;1.13;;
51883;SDS011;37915;53.254;6.598;2023-04-03T15:37:04;2.90;;;1.17;;
51883;SDS011;37915;53.254;6.598;2023-04-03T15:39:30;3.05;;;0.88;;
51883;SDS011;37915;53.254;6.598;2023-04-03T15:41:56;4.75;;;1.05;;
51883;SDS011;37915;53.254;6.598;2023-04-03T15:44:30;2.45;;;1.00;;
51883;SDS011;37915;53.254;6.598;2023-04-03T15:46:57;3.38;;;1.27;;
51883;SDS011;37915;53.254;6.598;2023-04-03T15:49:23;5.63;;;1.90;;
51883;SDS011;37915;53.254;6.598;2023-04-03T15:51:49;4.15;;;1.20;;
51883;SDS011;37915;53.254;6.598;2023-04-03T15:54:16;4.13;;;1.30;;
51883;SDS011;37915;53.254;6.598;2023-04-03T15:56:42;2.35;;;1.13;;
51883;SDS011;37915;53.254;6.598;2023-04-03T15:59:08;3.88;;;1.30;;
51883;SDS011;37915;53.254;6.598;2023-04-03T16:01:33;4.00;;;1.45;;
51883;SDS011;37915;53.254;6.598;2023-04-03T16:04:00;6.57;;;1.33;;
51883;SDS011;37915;53.254;6.598;2023-04-03T16:06:26;4.68;;;1.83;;
51883;SDS011;37915;53.254;6.598;2023-04-03T16:08:54;4.25;;;1.17;;
51883;SDS011;37915;53.254;6.598;2023-04-03T16:11:23;2.60;;;1.30;;
51883;SDS011;37915;53.254;6.598;2023-04-03T16:13:50;4.30;;;1.50;;
51883;SDS011;37915;53.254;6.598;2023-04-03T16:16:16;6.20;;;2.05;;
51883;SDS011;37915;53.254;6.598;2023-04-03T16:18:41;4.25;;;1.25;;
51883;SDS011;37915;53.254;6.598;2023-04-03T16:21:07;3.20;;;1.10;;
51883;SDS011;37915;53.254;6.598;2023-04-03T16:23:33;4.78;;;1.38;;
51883;SDS011;37915;53.254;6.598;2023-04-03T16:25:59;3.03;;;1.20;;
51883;SDS011;37915;53.254;6.598;2023-04-03T16:28:25;3.90;;;1.30;;
51883;SDS011;37915;53.254;6.598;2023-04-03T16:30:51;3.38;;;1.67;;